Time;durP1;ratioP1;P1;durP2;ratioP2;P2;SDS_P1;SDS_P2;PMS_P1;PMS_P2;Temp;Humidity;BMP_temperature;BMP_pressure;BME280_temperature;BME280_humidity;BME280_pressure;Samples;Min_cycle;Max_cycle;Signal;HPM_P1;HPM_P2
2021/11/03 00:02:24;;;;;;;43.98;29.82;;;;;;;9.85;73.50;98569.82;1773737;79;21491;-41
2021/11/03 00:04:51;;;;;;;44.13;29.23;;;;;;;9.87;73.28;98564.83;1746395;79;21009;-40
2021/11/03 00:07:18;;;;;;;43.00;29.45;;;;;;;9.90;73.16;98562.71;1804740;79;21121;-40
2021/11/03 00:09:45;;;;;;;43.10;28.12;;;;;;;9.89;73.04;98564.42;1738280;82;21056;-41
2021/11/03 00:12:13;;;;;;;39.03;28.38;;;;;;;9.89;73.03;98559.80;1738563;82;21570;-41
2021/11/03 00:14:40;;;;;;;42.83;27.40;;;;;;;9.92;72.77;98559.03;1738504;82;21003;-42
2021/11/03 00:17:06;;;;;;;41.90;28.75;;;;;;;9.95;72.81;98561.02;1738682;82;21092;-39
2021/11/03 00:19:34;;;;;;;42.05;28.80;;;;;;;9.97;72.79;98558.69;1738765;82;21191;-41
2021/11/03 00:22:01;;;;;;;40.88;29.07;;;;;;;9.97;72.64;98553.28;1738746;82;21073;-41
2021/11/03 00:24:27;;;;;;;42.83;27.48;;;;;;;9.96;72.60;98555.81;1738800;82;20972;-41
2021/11/03 00:26:54;;;;;;;37.33;25.65;;;;;;;9.99;72.53;98556.97;1738610;82;21276;-41
2021/11/03 00:29:20;;;;;;;36.93;25.85;;;;;;;10.06;72.36;98554.91;1738499;82;21520;-41
2021/11/03 00:31:47;;;;;;;40.78;27.93;;;;;;;10.08;72.24;98549.88;1738443;82;21182;-41
2021/11/03 00:34:13;;;;;;;39.08;27.55;;;;;;;10.07;72.25;98548.34;1738685;82;21057;-40
2021/11/03 00:36:40;;;;;;;40.20;27.98;;;;;;;10.09;72.37;98558.21;1733836;82;21541;-41
2021/11/03 00:39:07;;;;;;;36.40;25.45;;;;;;;10.11;72.20;98554.56;1728289;83;21557;-41
2021/11/03 00:41:35;;;;;;;39.00;26.23;;;;;;;10.12;71.97;98562.89;1755856;81;21622;-41
2021/11/03 00:44:02;;;;;;;40.78;28.15;;;;;;;10.15;71.92;98562.91;1728405;83;21192;-40
2021/11/03 00:46:29;;;;;;;39.67;27.42;;;;;;;10.17;71.86;98561.20;1755789;81;20941;-41
2021/11/03 00:48:57;;;;;;;40.78;28.02;;;;;;;10.15;71.84;98559.42;1793000;80;20919;-41
2021/11/03 00:51:24;;;;;;;45.95;28.95;;;;;;;10.10;71.94;98562.48;1727752;83;20981;-40
2021/11/03 00:53:52;;;;;;;37.28;26.17;;;;;;;10.03;72.07;98566.68;1722146;83;21030;-41
2021/11/03 00:56:19;;;;;;;37.73;26.10;;;;;;;10.01;72.26;98564.16;1755316;81;21137;-41
2021/11/03 00:58:46;;;;;;;41.83;27.70;;;;;;;10.03;72.27;98566.68;1793113;80;20942;-40
2021/11/03 01:01:13;;;;;;;45.05;28.98;;;;;;;10.07;72.38;98571.37;1727915;83;20971;-41
2021/11/03 01:03:39;;;;;;;44.13;30.57;;;;;;;10.08;72.44;98567.48;1728014;83;21029;-41
2021/11/03 01:06:06;;;;;;;46.15;31.05;;;;;;;10.07;72.55;98558.58;1705128;83;21705;-40
2021/11/03 01:08:33;;;;;;;41.58;29.32;;;;;;;10.09;72.64;98566.34;1755323;81;21951;-41
2021/11/03 01:11:01;;;;;;;43.48;29.15;;;;;;;10.12;72.60;98558.83;1727898;83;21030;-40
2021/11/03 01:13:28;;;;;;;46.60;30.05;;;;;;;10.18;72.52;98560.05;1755294;81;20977;-41
2021/11/03 01:15:57;;;;;;;47.00;31.85;;;;;;;10.23;72.52;98562.41;1727741;83;21564;-41
2021/11/03 01:18:28;;;;;;;46.37;30.97;;;;;;;10.23;72.60;98562.41;1755277;81;21057;-41
2021/11/03 01:20:55;;;;;;;49.15;33.30;;;;;;;10.22;72.53;98556.78;1792892;80;21104;-41
2021/11/03 01:23:23;;;;;;;45.17;29.77;;;;;;;10.16;72.67;98553.67;1793208;80;21575;-40
2021/11/03 01:25:50;;;;;;;41.90;28.98;;;;;;;10.16;72.77;98548.83;1792906;80;20922;-40
2021/11/03 01:28:18;;;;;;;47.70;30.55;;;;;;;10.22;72.68;98547.30;1721757;83;21018;-41
2021/11/03 01:30:45;;;;;;;48.52;32.30;;;;;;;10.26;72.74;98548.13;1755052;81;21031;-41
2021/11/03 01:33:15;;;;;;;47.53;31.55;;;;;;;10.24;72.82;98547.14;1793396;80;21116;-41
2021/11/03 01:35:41;;;;;;;49.85;30.75;;;;;;;10.25;72.90;98547.92;1792855;80;21002;-41
2021/11/03 01:38:08;;;;;;;43.38;27.75;;;;;;;10.22;72.91;98547.30;1747400;82;21037;-40
2021/11/03 01:40:39;;;;;;;46.10;28.65;;;;;;;10.19;73.11;98556.19;1749075;82;21021;-41
2021/11/03 01:43:08;;;;;;;45.08;28.62;;;;;;;10.25;73.21;98552.77;1816022;79;21056;-41
2021/11/03 01:45:35;;;;;;;47.95;29.65;;;;;;;10.29;73.20;98552.78;1815979;79;21791;-41
2021/11/03 01:48:05;;;;;;;48.95;31.45;;;;;;;10.30;73.23;98552.98;1815725;79;20918;-41
2021/11/03 01:50:54;;;;;;;44.45;28.20;;;;;;;10.28;73.35;98549.30;1815800;79;20986;-41
2021/11/03 01:53:27;;;;;;;42.10;26.82;;;;;;;10.33;73.27;98552.23;1814918;79;21539;-41
2021/11/03 01:56:02;;;;;;;41.98;28.12;;;;;;;10.37;73.22;98555.73;1815726;79;21025;-41
2021/11/03 01:58:33;;;;;;;46.65;28.98;;;;;;;10.31;73.35;98547.17;1813932;79;21144;-40
2021/11/03 02:01:01;;;;;;;48.60;30.35;;;;;;;10.27;73.60;98555.86;1814674;79;20956;-41
2021/11/03 02:03:29;;;;;;;44.25;26.93;;;;;;;10.24;73.74;98553.91;1748917;82;20976;-40
2021/11/03 02:06:03;;;;;;;42.20;27.13;;;;;;;10.22;73.82;98556.78;1748834;82;20989;-42
2021/11/03 02:08:34;;;;;;;42.43;27.20;;;;;;;10.25;73.81;98554.13;1748821;82;21092;-41
2021/11/03 02:11:00;;;;;;;41.02;27.62;;;;;;;10.28;73.87;98550.65;1815758;79;21068;-39
2021/11/03 02:13:30;;;;;;;44.08;29.18;;;;;;;10.27;73.98;98550.44;1815908;79;20972;-41
2021/11/03 02:15:57;;;;;;;;;;;;;;;10.25;74.06;98558.19;1751408;82;21000;-41
2021/11/03 02:18:24;;;;;;;43.75;27.50;;;;;;;10.24;74.11;98555.84;1798882;79;20251;-41
2021/11/03 02:20:51;;;;;;;43.00;27.65;;;;;;;10.19;74.29;98552.13;1756363;79;21025;-41
2021/11/03 02:23:30;;;;;;;48.20;30.17;;;;;;;10.30;74.20;98556.48;1748976;82;21158;-41
2021/11/03 02:26:10;;;;;;;44.77;29.07;;;;;;;10.32;74.19;98556.08;1749004;82;21598;-41
2021/11/03 02:28:40;;;;;;;48.38;29.65;;;;;;;10.30;74.24;98556.48;1749326;82;21500;-41
2021/11/03 02:31:07;;;;;;;45.05;28.20;;;;;;;10.28;74.29;98563.41;1749119;82;21562;-40
2021/11/03 02:33:34;;;;;;;40.43;26.80;;;;;;;10.27;74.26;98561.28;1748831;82;21014;-41
2021/11/03 02:36:05;;;;;;;42.88;27.98;;;;;;;10.34;74.24;98561.34;1748900;82;21808;-41
2021/11/03 02:38:40;;;;;;;40.65;27.32;;;;;;;10.38;74.22;98562.72;1728159;82;20942;-42
2021/11/03 02:41:12;;;;;;;45.30;29.02;;;;;;;10.39;74.30;98552.86;1755256;81;20977;-41
2021/11/03 02:43:45;;;;;;;42.17;26.65;;;;;;;10.39;74.35;98556.15;1727751;82;21013;-42
2021/11/03 02:46:12;;;;;;;41.92;26.10;;;;;;;10.42;74.24;98559.45;1755523;81;21005;-42
2021/11/03 02:48:40;;;;;;;40.80;25.82;;;;;;;10.44;74.27;98566.05;1793003;80;21129;-41
2021/11/03 02:51:19;;;;;;;41.58;27.37;;;;;;;10.47;74.27;98561.80;1793312;80;21032;-41
2021/11/03 02:53:53;;;;;;;43.92;28.38;;;;;;;10.47;74.35;98565.87;1793300;80;20990;-41
2021/11/03 02:56:24;;;;;;;46.65;28.07;;;;;;;10.45;74.45;98569.55;1793180;80;21030;-40
2021/11/03 02:58:51;;;;;;;37.93;26.25;;;;;;;10.44;74.53;98559.28;1727989;83;21030;-41
2021/11/03 03:01:34;;;;;;;41.18;26.48;;;;;;;10.47;74.58;98563.16;1755374;81;21135;-41
2021/11/03 03:04:02;;;;;;;40.67;27.37;;;;;;;10.52;74.46;98575.57;1793175;80;20990;-41
2021/11/03 03:06:30;;;;;;;42.30;27.82;;;;;;;10.48;74.56;98570.14;1728295;83;21022;-42
2021/11/03 03:08:59;;;;;;;45.78;28.75;;;;;;;10.47;74.70;98574.00;1727754;83;21050;-41
2021/11/03 03:11:28;;;;;;;40.60;25.52;;;;;;;10.42;74.76;98573.77;1727929;83;21054;-41
2021/11/03 03:13:55;;;;;;;35.70;24.67;;;;;;;10.41;74.86;98576.84;1755696;81;21086;-41
2021/11/03 03:16:22;;;;;;;38.60;26.97;;;;;;;10.45;74.86;98568.19;1793175;80;21113;-41
2021/11/03 03:18:49;;;;;;;43.35;27.37;;;;;;;10.49;74.91;98566.28;1727732;83;20903;-41
2021/11/03 03:21:19;;;;;;;40.03;26.82;;;;;;;10.48;74.96;98567.42;1755282;81;21006;-41
2021/11/03 03:23:47;;;;;;;39.30;25.12;;;;;;;10.50;74.97;98563.77;1722515;83;21113;-41
2021/11/03 03:26:17;;;;;;;35.78;23.85;;;;;;;10.54;74.81;98563.22;1755405;81;21132;-41
2021/11/03 03:28:45;;;;;;;39.10;25.95;;;;;;;10.59;74.67;98558.80;1721313;81;20989;-40
2021/11/03 03:31:14;;;;;;;37.13;25.00;;;;;;;10.57;74.71;98565.16;1727770;83;21032;-40
2021/11/03 03:33:42;;;;;;;39.10;26.15;;;;;;;10.53;74.83;98565.72;1755255;81;21021;-40
2021/11/03 03:36:09;;;;;;;34.83;23.98;;;;;;;10.50;74.90;98567.84;1793508;80;20962;-41
2021/11/03 03:38:37;;;;;;;38.55;23.92;;;;;;;10.48;74.99;98560.66;1812748;79;21112;-41
2021/11/03 03:41:04;;;;;;;37.67;24.85;;;;;;;10.51;74.99;98569.38;1748780;82;21528;-41
2021/11/03 03:43:31;;;;;;;39.60;25.02;;;;;;;10.54;74.93;98567.28;1816305;79;21000;-42
2021/11/03 03:45:58;;;;;;;35.85;24.87;;;;;;;10.51;75.07;98559.88;1749151;82;21036;-40
2021/11/03 03:48:26;;;;;;;35.38;23.55;;;;;;;10.51;75.05;98558.53;1815863;79;20981;-41
2021/11/03 03:50:54;;;;;;;33.60;24.23;;;;;;;10.53;75.04;98569.00;1816098;78;21098;-41
2021/11/03 03:53:22;;;;;;;34.48;24.72;;;;;;;10.58;74.87;98559.94;1815729;79;21016;-40
2021/11/03 03:55:51;;;;;;;35.35;24.55;;;;;;;10.63;74.74;98556.88;1815496;79;20977;-41
2021/11/03 03:58:20;;;;;;;37.95;25.10;;;;;;;10.62;74.76;98561.31;1815820;79;21020;-41
2021/11/03 04:00:48;;;;;;;34.58;24.35;;;;;;;10.61;74.79;98563.23;1815774;79;21083;-41
2021/11/03 04:03:15;;;;;;;33.10;23.90;;;;;;;10.62;74.71;98560.73;1809660;79;21116;-41
2021/11/03 04:05:44;;;;;;;33.78;23.30;;;;;;;10.65;74.65;98568.70;1748741;82;21646;-40
2021/11/03 04:08:13;;;;;;;36.48;24.72;;;;;;;10.62;74.72;98566.16;1748961;82;21052;-40
2021/11/03 04:10:40;;;;;;;36.05;24.95;;;;;;;10.55;74.88;98567.48;1748748;82;21096;-41
2021/11/03 04:13:08;;;;;;;30.20;22.35;;;;;;;10.51;75.05;98569.38;1749053;82;21057;-42
2021/11/03 04:15:35;;;;;;;35.78;22.62;;;;;;;10.50;75.16;98567.84;1748756;82;21032;-40
2021/11/03 04:18:02;;;;;;;33.45;23.60;;;;;;;10.55;75.12;98567.48;1741688;82;20980;-41
2021/11/03 04:20:30;;;;;;;36.10;24.12;;;;;;;10.58;75.13;98574.06;1736759;82;20941;-41
2021/11/03 04:22:56;;;;;;;40.33;24.55;;;;;;;10.55;75.24;98574.27;1736941;82;21595;-41
2021/11/03 04:25:24;;;;;;;29.90;21.42;;;;;;;10.52;75.28;98576.35;1736905;82;21021;-41
2021/11/03 04:27:51;;;;;;;28.50;21.40;;;;;;;10.52;75.38;98575.00;1736776;82;21189;-41
2021/11/03 04:30:19;;;;;;;31.00;22.58;;;;;;;10.57;75.38;98581.42;1719208;83;21483;-42
2021/11/03 04:32:46;;;;;;;32.98;23.87;;;;;;;10.59;75.35;98579.70;1752503;81;20984;-42
2021/11/03 04:35:14;;;;;;;34.98;24.15;;;;;;;10.55;75.52;98571.55;1752472;81;21008;-42
2021/11/03 04:37:41;;;;;;;29.10;21.00;;;;;;;10.54;75.69;98570.56;1745433;81;21029;-41
2021/11/03 04:40:12;;;;;;;28.35;20.80;;;;;;;10.59;75.61;98575.63;1731509;82;21079;-41
2021/11/03 04:42:39;;;;;;;30.80;22.07;;;;;;;10.64;75.49;98580.12;1731851;81;20934;-41
2021/11/03 04:45:08;;;;;;;31.20;21.52;;;;;;;10.68;75.40;98584.20;1731472;82;20954;-41
2021/11/03 04:47:36;;;;;;;31.35;21.68;;;;;;;10.63;75.50;98586.69;1708666;82;20982;-41
2021/11/03 04:50:06;;;;;;;26.55;19.40;;;;;;;10.59;75.62;98588.61;1731607;82;21069;-41
2021/11/03 04:52:33;;;;;;;26.87;19.02;;;;;;;10.60;75.65;98596.16;1731773;81;21472;-41
2021/11/03 04:55:01;;;;;;;29.40;19.57;;;;;;;10.67;75.55;98596.19;1731583;81;21017;-40
2021/11/03 04:57:28;;;;;;;29.00;20.12;;;;;;;10.69;75.49;98595.25;1731441;82;21045;-41
2021/11/03 05:00:01;;;;;;;33.42;21.90;;;;;;;10.64;75.66;98595.61;1731503;82;21089;-40
2021/11/03 05:02:27;;;;;;;27.73;20.27;;;;;;;10.60;75.81;98598.27;1743988;80;21077;-40
2021/11/03 05:04:54;;;;;;;25.57;18.92;;;;;;;10.59;75.82;98604.87;1762191;81;21863;-40
2021/11/03 05:07:21;;;;;;;26.75;20.05;;;;;;;10.58;75.89;98606.02;1761963;81;21021;-41
2021/11/03 05:09:48;;;;;;;27.95;19.77;;;;;;;10.57;76.07;98609.88;1761873;81;21480;-41
2021/11/03 05:12:16;;;;;;;25.45;18.98;;;;;;;10.56;76.20;98612.38;1761781;81;21030;-42
2021/11/03 05:14:44;;;;;;;25.82;18.12;;;;;;;10.55;76.21;98612.78;1761770;81;21018;-39
2021/11/03 05:17:11;;;;;;;26.37;18.37;;;;;;;10.56;76.29;98620.52;1761709;81;21134;-42
2021/11/03 05:19:38;;;;;;;27.15;19.05;;;;;;;10.60;76.31;98622.66;1761695;81;21602;-41
2021/11/03 05:22:11;;;;;;;29.92;19.20;;;;;;;10.59;76.46;98625.77;1751938;81;21020;-41
2021/11/03 05:24:39;;;;;;;25.88;18.10;;;;;;;10.56;76.50;98628.64;1750458;81;21091;-40
2021/11/03 05:27:08;;;;;;;22.07;16.40;;;;;;;10.56;76.64;98623.22;1738022;82;21049;-41
2021/11/03 05:29:34;;;;;;;27.10;18.45;;;;;;;10.62;76.50;98629.08;1758137;80;21120;-40
2021/11/03 05:32:01;;;;;;;27.75;19.62;;;;;;;10.65;76.48;98639.93;1762231;81;21005;-39
2021/11/03 05:34:28;;;;;;;27.52;19.02;;;;;;;10.65;76.55;98645.36;1761770;81;21476;-41
2021/11/03 05:36:54;;;;;;;24.77;18.05;;;;;;;10.61;76.58;98647.27;1761787;81;21354;-42
2021/11/03 05:39:21;;;;;;;24.07;18.05;;;;;;;10.60;76.71;98651.13;1761630;80;21018;-39
2021/11/03 05:41:48;;;;;;;25.57;18.10;;;;;;;10.63;76.72;98651.74;1761867;81;21957;-41
2021/11/03 05:44:18;;;;;;;27.75;18.42;;;;;;;10.68;76.71;98658.75;1761847;81;21009;-42
2021/11/03 05:46:55;;;;;;;26.62;19.32;;;;;;;10.65;76.77;98665.69;1762350;81;21073;-40
2021/11/03 05:49:25;;;;;;;24.63;17.95;;;;;;;10.65;76.81;98671.11;1755945;81;20994;-42
2021/11/03 05:51:53;;;;;;;24.98;18.32;;;;;;;10.67;76.83;98675.59;1762034;80;21062;-41
2021/11/03 05:54:20;;;;;;;23.40;18.02;;;;;;;10.73;76.80;98677.38;1761642;81;21127;-41
2021/11/03 05:56:47;;;;;;;24.52;17.42;;;;;;;10.78;76.70;98677.80;1761364;81;21005;-40
2021/11/03 05:59:15;;;;;;;23.27;16.97;;;;;;;10.77;76.66;98681.66;1761658;81;21249;-41
2021/11/03 06:01:41;;;;;;;22.52;16.90;;;;;;;10.77;76.59;98684.38;1761775;80;21069;-41
2021/11/03 06:04:08;;;;;;;23.70;17.40;;;;;;;10.81;76.46;98690.59;1761740;81;21018;-41
2021/11/03 06:06:34;;;;;;;22.55;16.57;;;;;;;10.82;76.53;98694.09;1761655;81;21133;-41
2021/11/03 06:09:01;;;;;;;21.73;16.05;;;;;;;10.79;76.56;98694.86;1761667;81;20962;-41
2021/11/03 06:11:30;;;;;;;22.37;15.68;;;;;;;10.76;76.67;98695.02;1761748;81;21517;-42
2021/11/03 06:13:58;;;;;;;19.90;14.80;;;;;;;10.77;76.68;98707.42;1761642;81;21001;-42
2021/11/03 06:16:25;;;;;;;21.75;15.38;;;;;;;10.81;76.65;98708.80;1761568;81;21017;-41
2021/11/03 06:18:52;;;;;;;22.67;16.00;;;;;;;10.79;76.75;98711.91;1761671;81;21157;-41
2021/11/03 06:21:19;;;;;;;20.85;14.35;;;;;;;10.74;76.91;98706.83;1761753;81;21517;-41
2021/11/03 06:23:46;;;;;;;17.77;13.38;;;;;;;10.74;77.04;98711.47;1761719;81;21476;-41
2021/11/03 06:26:18;;;;;;;18.10;14.23;;;;;;;10.73;77.19;98712.05;1761752;81;21069;-41
2021/11/03 06:28:44;;;;;;;20.40;15.03;;;;;;;10.75;77.08;98715.72;1761937;81;21025;-41
2021/11/03 06:31:12;;;;;;;19.45;13.38;;;;;;;10.71;77.29;98718.41;1761687;81;21127;-41
2021/11/03 06:33:39;;;;;;;17.98;13.03;;;;;;;10.70;77.37;98718.20;1761628;81;21083;-41
2021/11/03 06:36:07;;;;;;;19.07;13.40;;;;;;;10.72;77.50;98732.17;1761905;81;21025;-41
2021/11/03 06:38:36;;;;;;;18.15;13.90;;;;;;;10.78;77.26;98733.39;1761552;80;21065;-41
2021/11/03 06:41:05;;;;;;;18.27;13.53;;;;;;;10.80;77.26;98739.77;1762053;81;21091;-41
2021/11/03 06:43:33;;;;;;;20.10;12.35;;;;;;;10.77;77.33;98734.53;1761861;81;21029;-41
2021/11/03 06:46:00;;;;;;;14.28;10.80;;;;;;;10.80;77.24;98737.84;1761716;80;20879;-42
2021/11/03 06:48:26;;;;;;;17.42;12.55;;;;;;;10.82;77.22;98744.25;1761734;81;20961;-42
2021/11/03 06:50:53;;;;;;;18.35;12.53;;;;;;;10.84;77.09;98743.31;1761542;81;21482;-41
2021/11/03 06:53:22;;;;;;;14.87;11.43;;;;;;;10.81;77.25;98750.82;1761565;81;21042;-42
2021/11/03 06:55:50;;;;;;;15.20;11.65;;;;;;;10.77;77.43;98746.73;1761730;81;21147;-41
2021/11/03 06:58:18;;;;;;;15.13;11.15;;;;;;;10.76;77.51;98751.17;1761701;81;21554;-42
2021/11/03 07:00:45;;;;;;;16.05;11.53;;;;;;;10.80;77.49;98751.97;1761835;81;20946;-42
2021/11/03 07:03:12;;;;;;;15.85;11.95;;;;;;;10.86;77.36;98747.19;1761772;80;21042;-41
2021/11/03 07:05:43;;;;;;;15.63;11.90;;;;;;;10.87;77.34;98752.82;1762159;81;20965;-42
2021/11/03 07:08:10;;;;;;;14.95;11.50;;;;;;;10.85;77.43;98754.34;1761728;80;21465;-41
2021/11/03 07:10:41;;;;;;;14.65;9.95;;;;;;;10.84;77.50;98756.27;1761590;81;21001;-41
2021/11/03 07:13:07;;;;;;;15.85;11.93;;;;;;;10.90;77.39;98753.42;1761794;81;21029;-40
2021/11/03 07:15:36;;;;;;;15.70;11.73;;;;;;;10.96;77.28;98755.78;1761632;81;21028;-41
2021/11/03 07:18:05;;;;;;;13.98;10.93;;;;;;;10.97;77.33;98755.98;1761385;81;21025;-42
2021/11/03 07:20:32;;;;;;;13.72;10.45;;;;;;;10.95;77.40;98763.13;1761852;81;21870;-42
2021/11/03 07:22:58;;;;;;;14.93;11.95;;;;;;;10.98;77.45;98757.55;1761605;81;20998;-41
2021/11/03 07:25:25;;;;;;;14.65;11.03;;;;;;;11.04;77.46;98765.52;1761506;81;21033;-42
2021/11/03 07:27:54;;;;;;;15.00;11.80;;;;;;;11.07;77.42;98759.36;1761676;81;21473;-42
2021/11/03 07:30:23;;;;;;;16.77;11.60;;;;;;;11.08;77.44;98763.63;1761840;81;21345;-41
2021/11/03 07:32:49;;;;;;;16.57;10.80;;;;;;;11.08;77.59;98760.92;1761656;81;21112;-41
2021/11/03 07:35:17;;;;;;;16.62;11.63;;;;;;;11.15;77.50;98770.45;1761449;81;21017;-41
2021/11/03 07:37:43;;;;;;;17.23;12.37;;;;;;;11.17;77.53;98762.15;1761698;81;20907;-42
2021/11/03 07:40:14;;;;;;;16.55;12.07;;;;;;;11.21;77.65;98777.09;1783002;80;21064;-41
2021/11/03 07:42:41;;;;;;;18.25;12.55;;;;;;;11.25;77.55;98767.03;1742016;82;21056;-41
2021/11/03 07:45:09;;;;;;;16.10;12.03;;;;;;;11.28;77.41;98769.77;1767160;81;22234;-41
2021/11/03 07:47:36;;;;;;;18.82;13.20;;;;;;;11.33;77.17;98774.05;1767244;80;20977;-42
2021/11/03 07:50:05;;;;;;;18.00;12.13;;;;;;;11.32;77.33;98768.45;1767296;81;21041;-41
2021/11/03 07:52:32;;;;;;;26.80;22.10;;;;;;;11.25;77.38;98768.39;1767271;81;20973;-42
2021/11/03 07:54:59;;;;;;;19.90;15.93;;;;;;;11.32;77.48;98780.66;1767177;81;21500;-41
2021/11/03 07:57:25;;;;;;;17.45;13.30;;;;;;;11.39;77.31;98782.05;1767021;81;21797;-41
2021/11/03 07:59:53;;;;;;;18.90;14.65;;;;;;;11.46;77.26;98780.75;1766989;81;20934;-41
2021/11/03 08:02:20;;;;;;;20.25;15.30;;;;;;;11.48;77.25;98788.49;1767184;80;21017;-41
2021/11/03 08:04:47;;;;;;;20.92;15.55;;;;;;;11.51;77.06;98788.53;1767307;81;21028;-42
2021/11/03 08:07:13;;;;;;;21.75;15.85;;;;;;;11.56;76.84;98788.75;1767165;81;20991;-42
2021/11/03 08:09:45;;;;;;;21.70;16.77;;;;;;;11.61;76.82;98795.96;1767467;80;21095;-41
2021/11/03 08:12:10;;;;;;;24.72;18.20;;;;;;;11.62;76.96;98797.49;1766362;81;21017;-42
2021/11/03 08:14:37;;;;;;;27.65;18.42;;;;;;;11.65;76.87;98801.41;1761815;81;21531;-41
2021/11/03 08:17:12;;;;;;;23.20;17.02;;;;;;;11.67;76.88;98799.85;1767002;81;21002;-41
2021/11/03 08:19:48;;;;;;;41.92;26.25;;;;;;;11.73;76.55;98798.37;1767216;81;21057;-41
2021/11/03 08:22:20;;;;;;;30.30;21.60;;;;;;;11.77;76.51;98798.38;1767017;81;21102;-41
2021/11/03 08:24:48;;;;;;;45.03;28.83;;;;;;;11.79;76.58;98801.50;1766890;80;21023;-41
2021/11/03 08:27:15;;;;;;;25.80;18.92;;;;;;;11.85;76.73;98807.36;1767314;81;21587;-41
2021/11/03 08:29:41;;;;;;;26.60;19.62;;;;;;;11.96;76.43;98805.45;1767306;81;21049;-42
2021/11/03 08:32:11;;;;;;;25.57;19.35;;;;;;;12.09;76.17;98799.31;1767362;81;21049;-41
2021/11/03 08:34:38;;;;;;;30.35;22.30;;;;;;;12.15;76.03;98801.09;1767472;81;21147;-41
2021/11/03 08:37:09;;;;;;;31.55;22.27;;;;;;;12.19;76.05;98805.95;1767147;81;21459;-41
2021/11/03 08:39:36;;;;;;;28.42;22.20;;;;;;;12.25;75.69;98801.67;1767166;81;21012;-41
2021/11/03 08:42:04;;;;;;;28.87;20.62;;;;;;;12.37;75.73;98800.56;1767021;81;21515;-41
2021/11/03 08:44:31;;;;;;;30.23;22.73;;;;;;;12.42;75.27;98811.84;1767475;81;21045;-42
2021/11/03 08:46:59;;;;;;;32.85;23.98;;;;;;;12.42;74.98;98818.63;1767035;81;21441;-41
2021/11/03 08:49:25;;;;;;;30.57;23.80;;;;;;;12.41;74.65;98814.93;1767389;81;20941;-41
2021/11/03 08:51:52;;;;;;;42.30;28.77;;;;;;;12.42;74.74;98819.21;1767137;81;20994;-42
2021/11/03 08:54:18;;;;;;;34.48;25.08;;;;;;;12.42;74.65;98821.93;1767312;81;21028;-41
2021/11/03 08:56:46;;;;;;;36.45;24.75;;;;;;;12.41;74.67;98830.66;1766880;81;20946;-41
2021/11/03 08:59:13;;;;;;;34.98;23.67;;;;;;;12.40;74.51;98826.38;1767445;81;21150;-41
2021/11/03 09:01:40;;;;;;;32.55;24.47;;;;;;;12.40;74.48;98834.53;1767105;81;21504;-42
2021/11/03 09:04:08;;;;;;;34.48;26.25;;;;;;;12.43;74.12;98835.73;1767010;81;20938;-42
2021/11/03 09:06:36;;;;;;;36.20;25.97;;;;;;;12.44;74.17;98832.60;1767147;81;21037;-41
2021/11/03 09:09:05;;;;;;;36.37;25.03;;;;;;;12.44;74.33;98838.04;1767662;81;21272;-41
2021/11/03 09:11:32;;;;;;;32.55;23.35;;;;;;;12.47;74.02;98848.17;1767052;81;21128;-42
2021/11/03 09:13:59;;;;;;;32.05;23.85;;;;;;;12.51;74.22;98846.23;1761465;81;21005;-41
2021/11/03 09:16:27;;;;;;;32.90;24.35;;;;;;;12.60;74.12;98854.80;1767186;81;21271;-41
2021/11/03 09:18:54;;;;;;;37.25;25.57;;;;;;;12.61;74.16;98861.80;1767525;81;20982;-42
2021/11/03 09:21:22;;;;;;;32.93;24.80;;;;;;;12.61;74.27;98863.73;1767399;81;21069;-41
2021/11/03 09:23:49;;;;;;;32.30;23.98;;;;;;;12.64;74.35;98865.67;1767130;81;21140;-42
2021/11/03 09:26:16;;;;;;;33.23;25.00;;;;;;;12.71;74.12;98874.45;1767175;81;20994;-42
2021/11/03 09:28:45;;;;;;;35.83;27.00;;;;;;;12.74;73.73;98874.45;1767516;81;21025;-41
2021/11/03 09:31:11;;;;;;;34.33;26.17;;;;;;;12.71;73.62;98871.72;1767194;81;21014;-41
2021/11/03 09:33:39;;;;;;;32.88;24.07;;;;;;;12.69;73.75;98873.46;1767140;81;21033;-41
2021/11/03 09:36:09;;;;;;;35.65;25.50;;;;;;;12.67;73.88;98877.74;1767047;81;21122;-42
2021/11/03 09:38:37;;;;;;;43.75;25.72;;;;;;;12.70;73.40;98881.83;1766447;80;21010;-42
2021/11/03 09:41:27;;;;;;;32.93;25.77;;;;;;;12.73;72.99;98887.84;1758790;81;21013;-42
2021/11/03 09:44:00;;;;;;;30.77;22.97;;;;;;;12.70;72.40;98893.28;1758186;81;21042;-41
2021/11/03 09:46:43;;;;;;;31.23;20.77;;;;;;;12.61;71.50;98886.27;1758720;81;21532;-42
2021/11/03 09:49:22;;;;;;;25.92;20.32;;;;;;;12.56;71.13;98888.58;1758972;81;21749;-41
2021/11/03 09:52:34;;;;;;;25.88;21.00;;;;;;;12.55;70.46;98891.88;1758604;81;20899;-41
2021/11/03 09:55:21;;;;;;;28.07;21.10;;;;;;;12.57;70.28;98892.87;1758940;81;21018;-41
2021/11/03 09:57:57;;;;;;;30.77;22.48;;;;;;;12.57;70.62;98895.01;1741893;81;21085;-42
2021/11/03 10:00:45;;;;;;;27.05;22.58;;;;;;;12.61;71.08;98899.87;1758990;81;21570;-41
2021/11/03 10:03:41;;;;;;;51.33;22.70;;;;;;;12.64;71.22;98896.37;1758820;80;21815;-42
2021/11/03 10:06:36;;;;;;;43.00;29.32;;;;;;;12.71;70.47;98901.06;1758650;81;21073;-41
2021/11/03 10:09:03;;;;;;;32.80;23.10;;;;;;;12.74;70.16;98898.14;1758650;81;20966;-42
2021/11/03 10:11:39;;;;;;;29.05;21.48;;;;;;;12.74;69.50;98895.42;1758961;81;21034;-42
2021/11/03 10:14:08;;;;;;;27.32;19.80;;;;;;;12.76;69.63;98898.55;1758897;81;21013;-42
2021/11/03 10:16:43;;;;;;;23.38;19.40;;;;;;;12.81;69.60;98904.98;1759111;81;21102;-41
2021/11/03 10:19:20;;;;;;;23.60;18.90;;;;;;;12.87;69.19;98900.72;1758794;81;20899;-41
2021/11/03 10:22:02;;;;;;;24.32;18.80;;;;;;;12.88;68.93;98907.70;1758496;81;20962;-41
2021/11/03 10:24:39;;;;;;;26.45;20.37;;;;;;;12.88;69.07;98909.05;1758685;81;21038;-41
2021/11/03 10:27:18;;;;;;;24.32;19.48;;;;;;;12.91;69.11;98911.03;1759033;81;21535;-42
2021/11/03 10:29:55;;;;;;;24.52;19.62;;;;;;;12.99;68.89;98916.67;1758676;81;21804;-40
2021/11/03 10:32:34;;;;;;;32.83;20.87;;;;;;;13.08;68.55;98917.07;1734514;82;21004;-41
2021/11/03 10:35:26;;;;;;;31.93;26.25;;;;;;;13.13;68.62;98922.16;1737774;82;21633;-40
2021/11/03 10:38:05;;;;;;;25.17;20.27;;;;;;;13.17;68.35;98924.91;1750818;82;20964;-42
2021/11/03 10:40:49;;;;;;;21.07;17.60;;;;;;;13.17;67.23;98927.64;1749767;80;20973;-41
2021/11/03 10:43:35;;;;;;;40.28;31.40;;;;;;;13.22;67.23;98933.45;1746347;81;21137;-42
2021/11/03 10:46:19;;;;;;;36.88;24.35;;;;;;;13.29;67.39;98932.11;1737520;82;20914;-41
2021/11/03 10:49:05;;;;;;;22.62;16.35;;;;;;;13.32;65.79;98940.85;1750884;82;21036;-40
2021/11/03 10:51:41;;;;;;;18.30;13.90;;;;;;;13.39;65.47;98949.63;1736575;82;20990;-42
2021/11/03 10:54:17;;;;;;;17.42;14.33;;;;;;;13.48;64.78;98952.16;1750857;82;21040;-41
2021/11/03 10:56:58;;;;;;;20.50;13.72;;;;;;;13.57;63.79;98950.98;1750873;81;21140;-41
2021/11/03 10:59:30;;;;;;;19.55;14.10;;;;;;;13.65;64.12;98952.56;1735464;82;20981;-40
2021/11/03 11:02:19;;;;;;;18.10;13.43;;;;;;;13.80;63.53;98944.55;1747008;81;20966;-41
2021/11/03 11:04:47;;;;;;;19.30;15.55;;;;;;;13.99;63.64;98955.04;1732034;82;21010;-40
2021/11/03 11:07:37;;;;;;;16.80;13.75;;;;;;;14.31;62.28;98957.72;1731681;82;21544;-41
2021/11/03 11:10:19;;;;;;;;;;;;;;;14.60;61.47;98957.07;1731177;82;21139;-42
2021/11/03 11:12:48;;;;;;;16.00;12.98;;;;;;;14.74;59.33;98955.64;1731376;82;20161;-39
2021/11/03 11:15:38;;;;;;;16.97;13.35;;;;;;;14.74;59.63;98943.37;1697964;84;20919;-41
2021/11/03 11:18:39;;;;;;;15.97;13.53;;;;;;;14.93;58.48;98953.80;1698802;84;21041;-41
2021/11/03 11:21:16;;;;;;;16.62;14.10;;;;;;;15.01;57.98;98962.71;1698967;83;21675;-41
2021/11/03 11:23:48;;;;;;;18.50;14.98;;;;;;;14.89;58.71;98958.50;1698437;84;21145;-41
2021/11/03 11:26:27;;;;;;;19.30;14.83;;;;;;;14.78;58.73;98956.41;1698633;84;21109;-41
2021/11/03 11:29:11;;;;;;;18.73;13.70;;;;;;;14.70;58.90;98957.62;1698409;84;21055;-41
2021/11/03 11:31:50;;;;;;;15.70;12.28;;;;;;;14.60;59.07;98961.16;1680497;84;21042;-41
2021/11/03 11:34:51;;;;;;;16.37;13.28;;;;;;;14.52;59.69;98965.09;1713839;83;21297;-42